createdAt,value
2018-07-24T00:01:07.890Z,13.47
2018-07-24T00:03:36.039Z,14.87
2018-07-24T00:06:04.206Z,14.47
2018-07-24T00:08:32.363Z,14.23
2018-07-24T00:11:00.554Z,14.13
2018-07-24T00:13:28.591Z,14.47
2018-07-24T00:15:56.539Z,14.77
2018-07-24T00:18:24.672Z,14.50
2018-07-24T00:20:52.813Z,14.27
2018-07-24T00:23:20.930Z,14.17
2018-07-24T00:25:49.073Z,14.47
2018-07-24T00:28:17.201Z,14.93
2018-07-24T00:30:45.354Z,14.13
2018-07-24T00:33:13.735Z,14.53
2018-07-24T00:35:41.882Z,14.20
2018-07-24T00:38:10.002Z,14.90
2018-07-24T00:40:37.966Z,14.70
2018-07-24T00:43:06.084Z,14.53
2018-07-24T00:45:34.234Z,14.30
2018-07-24T00:48:02.153Z,14.17
2018-07-24T00:50:30.303Z,14.10
2018-07-24T00:52:58.425Z,13.90
2018-07-24T00:55:26.567Z,14.40
2018-07-24T00:57:54.727Z,13.53
2018-07-24T01:00:22.862Z,13.10
2018-07-24T01:02:50.801Z,14.60
2018-07-24T01:05:18.936Z,14.37
2018-07-24T01:07:47.061Z,13.33
2018-07-24T01:10:14.945Z,13.90
2018-07-24T01:12:42.880Z,14.30
2018-07-24T01:15:11.006Z,13.37
2018-07-24T01:17:39.121Z,13.37
2018-07-24T01:20:07.251Z,12.83
2018-07-24T01:22:35.367Z,13.93
2018-07-24T01:25:03.485Z,13.30
2018-07-24T01:27:31.590Z,13.97
2018-07-24T01:29:59.713Z,13.63
2018-07-24T01:32:27.637Z,15.27
2018-07-24T01:34:55.766Z,13.87
2018-07-24T01:37:23.862Z,13.03
2018-07-24T01:39:51.969Z,13.43
2018-07-24T01:42:20.093Z,12.37
2018-07-24T01:44:48.213Z,12.40
2018-07-24T01:47:16.344Z,12.87
2018-07-24T01:49:44.449Z,12.90
2018-07-24T01:52:12.572Z,13.53
2018-07-24T01:54:40.737Z,12.00
2018-07-24T01:57:08.853Z,13.53
2018-07-24T01:59:36.963Z,11.93
2018-07-24T02:02:05.095Z,13.17
2018-07-24T02:04:33.322Z,12.27
2018-07-24T02:07:01.276Z,13.17
2018-07-24T02:09:29.389Z,13.77
2018-07-24T02:11:57.518Z,14.43
2018-07-24T02:14:25.640Z,14.23
2018-07-24T02:16:53.770Z,14.73
2018-07-24T02:19:21.641Z,13.87
2018-07-24T02:21:49.537Z,14.90
2018-07-24T02:24:17.642Z,14.37
2018-07-24T02:26:45.765Z,13.77
2018-07-24T02:29:13.887Z,15.20
2018-07-24T02:31:41.995Z,14.20
2018-07-24T02:34:09.955Z,14.43
2018-07-24T02:36:38.106Z,13.40
2018-07-24T02:39:10.835Z,13.73
2018-07-24T02:41:38.950Z,13.13
2018-07-24T02:44:07.083Z,12.90
2018-07-24T02:46:35.217Z,12.73
2018-07-24T02:49:03.582Z,13.73
2018-07-24T02:51:31.973Z,13.60
2018-07-24T02:54:00.082Z,14.73
2018-07-24T02:56:28.639Z,14.03
2018-07-24T02:58:56.782Z,13.27
2018-07-24T03:01:24.983Z,14.70
2018-07-24T03:03:53.091Z,15.77
2018-07-24T03:06:21.223Z,15.70
2018-07-24T03:08:49.334Z,14.77
2018-07-24T03:11:17.469Z,14.87
2018-07-24T03:13:45.587Z,14.17
2018-07-24T03:16:13.720Z,14.87
2018-07-24T03:18:41.819Z,14.37
2018-07-24T03:21:09.939Z,15.23
2018-07-24T03:23:38.070Z,14.33
2018-07-24T03:26:06.207Z,13.60
2018-07-24T03:28:34.330Z,14.97
2018-07-24T03:31:02.450Z,15.17
2018-07-24T03:33:30.573Z,15.13
2018-07-24T03:35:58.802Z,14.50
2018-07-24T03:38:26.917Z,15.47
2018-07-24T03:40:55.036Z,15.43
2018-07-24T03:43:23.161Z,16.57
2018-07-24T03:45:51.270Z,15.80
2018-07-24T03:48:19.396Z,15.93
2018-07-24T03:50:47.509Z,15.07
2018-07-24T03:53:15.623Z,16.20
2018-07-24T03:55:43.493Z,15.63
2018-07-24T03:58:11.401Z,15.37
2018-07-24T04:00:39.507Z,16.00
2018-07-24T04:03:07.646Z,16.00
2018-07-24T04:05:35.753Z,17.13
2018-07-24T04:08:03.887Z,16.50
2018-07-24T04:10:31.989Z,17.17
2018-07-24T04:13:00.102Z,16.47
2018-07-24T04:15:28.221Z,16.63
2018-07-24T04:17:56.341Z,16.57
2018-07-24T04:20:24.269Z,16.60
2018-07-24T04:22:52.402Z,17.33
2018-07-24T04:25:20.522Z,17.50
2018-07-24T04:27:48.694Z,17.40
2018-07-24T04:30:16.814Z,16.90
2018-07-24T04:32:44.934Z,17.07
2018-07-24T04:35:13.049Z,17.50
2018-07-24T04:37:40.944Z,16.93
2018-07-24T04:40:09.098Z,16.63
2018-07-24T04:42:37.187Z,16.70
2018-07-24T04:45:05.757Z,16.63
2018-07-24T04:47:33.882Z,16.87
2018-07-24T04:50:02.121Z,15.50
2018-07-24T04:52:30.217Z,16.27
2018-07-24T04:54:58.334Z,17.10
2018-07-24T04:57:26.464Z,18.07
2018-07-24T04:59:54.362Z,17.77
2018-07-24T05:02:22.286Z,19.20
2018-07-24T05:04:50.409Z,18.47
2018-07-24T05:07:18.294Z,19.07
2018-07-24T05:09:46.438Z,18.97
2018-07-24T05:12:14.384Z,18.77
2018-07-24T05:14:42.507Z,18.23
2018-07-24T05:17:10.733Z,17.53
2018-07-24T05:19:38.853Z,17.17
2018-07-24T05:22:07.034Z,20.07
2018-07-24T05:24:35.159Z,18.37
2018-07-24T05:27:03.286Z,15.77
2018-07-24T05:29:31.418Z,17.47
2018-07-24T05:31:59.534Z,15.90
2018-07-24T05:34:27.657Z,15.57
2018-07-24T05:36:55.767Z,15.87
2018-07-24T05:39:23.906Z,16.03
2018-07-24T05:41:52.021Z,15.50
2018-07-24T05:44:20.153Z,15.63
2018-07-24T05:46:48.255Z,15.90
2018-07-24T05:49:16.969Z,15.90
2018-07-24T05:51:45.100Z,14.87
2018-07-24T05:54:13.232Z,15.87
2018-07-24T05:56:41.337Z,15.97
2018-07-24T05:59:09.279Z,15.83
2018-07-24T06:01:37.406Z,15.23
2018-07-24T06:04:05.682Z,16.03
2018-07-24T06:06:33.783Z,16.87
2018-07-24T06:09:01.892Z,16.03
2018-07-24T06:11:29.828Z,15.27
2018-07-24T06:13:57.942Z,17.33
2018-07-24T06:16:26.065Z,16.40
2018-07-24T06:18:54.176Z,16.77
2018-07-24T06:21:22.065Z,15.60
2018-07-24T06:23:50.170Z,17.20
2018-07-24T06:26:18.287Z,15.93
2018-07-24T06:28:46.250Z,16.70
2018-07-24T06:31:14.344Z,14.90
2018-07-24T06:33:42.463Z,16.20
2018-07-24T06:36:10.588Z,16.13
2018-07-24T06:38:38.705Z,14.77
2018-07-24T06:41:06.812Z,15.67
2018-07-24T06:43:34.773Z,14.60
2018-07-24T06:46:02.875Z,14.97
2018-07-24T06:48:30.991Z,20.00
2018-07-24T06:50:59.102Z,14.17
2018-07-24T06:53:27.045Z,13.67
2018-07-24T06:55:55.177Z,12.53
2018-07-24T06:58:23.521Z,12.93
2018-07-24T07:00:51.417Z,13.50
2018-07-24T07:03:19.549Z,13.13
2018-07-24T07:05:47.643Z,13.77
2018-07-24T07:08:15.584Z,12.97
2018-07-24T07:10:43.694Z,13.97
2018-07-24T07:13:11.852Z,13.47
2018-07-24T07:15:39.948Z,13.20
2018-07-24T07:18:08.058Z,13.97
2018-07-24T07:20:36.265Z,15.23
2018-07-24T07:23:04.318Z,13.40
2018-07-24T07:25:32.440Z,15.07
2018-07-24T07:28:00.569Z,12.77
2018-07-24T07:30:28.698Z,13.80
2018-07-24T07:32:56.801Z,12.90
2018-07-24T07:35:24.933Z,13.63
2018-07-24T07:37:53.045Z,11.53
2018-07-24T07:40:21.146Z,10.53
2018-07-24T07:42:49.029Z,10.13
2018-07-24T07:45:17.170Z,10.30
2018-07-24T07:47:45.251Z,9.53
2018-07-24T07:50:13.354Z,80.77
2018-07-24T07:52:41.457Z,9.60
2018-07-24T07:55:09.573Z,8.40
2018-07-24T07:57:37.457Z,9.50
2018-07-24T08:00:06.067Z,10.80
2018-07-24T08:02:34.234Z,10.10
2018-07-24T08:05:02.444Z,9.43
2018-07-24T08:07:30.538Z,9.67
2018-07-24T08:09:58.655Z,9.33
2018-07-24T08:12:26.873Z,10.10
2018-07-24T08:14:54.913Z,10.80
2018-07-24T08:17:23.037Z,8.70
2018-07-24T08:19:50.974Z,7.50
2018-07-24T08:22:19.132Z,8.07
2018-07-24T08:27:20.701Z,8.87
2018-07-24T08:29:48.829Z,6.53
2018-07-24T08:32:16.934Z,5.63
2018-07-24T08:34:45.045Z,14.53
2018-07-24T08:37:13.143Z,6.23
2018-07-24T08:39:41.245Z,7.03
2018-07-24T08:42:09.362Z,6.43
2018-07-24T08:44:37.519Z,6.13
2018-07-24T08:47:05.583Z,6.50
2018-07-24T08:49:33.697Z,5.77
2018-07-24T08:52:01.596Z,6.53
2018-07-24T08:54:29.868Z,5.23
2018-07-24T08:56:57.848Z,5.67
2018-07-24T08:59:25.953Z,6.00
2018-07-24T09:01:54.058Z,6.30
2018-07-24T09:04:22.203Z,6.73
2018-07-24T09:06:50.285Z,6.40
2018-07-24T09:09:18.405Z,6.93
2018-07-24T09:11:46.514Z,6.63
2018-07-24T09:14:14.618Z,6.67
2018-07-24T09:16:42.748Z,6.40
2018-07-24T09:19:10.866Z,6.20
2018-07-24T09:21:38.972Z,5.77
2018-07-24T09:24:07.074Z,6.27
2018-07-24T09:26:35.205Z,6.03
2018-07-24T09:29:03.310Z,6.23
2018-07-24T09:31:31.447Z,6.50
2018-07-24T09:33:59.661Z,6.13
2018-07-24T09:36:27.770Z,5.90
2018-07-24T09:38:55.886Z,5.93
2018-07-24T09:41:24.148Z,5.13
2018-07-24T09:43:52.243Z,7.70
2018-07-24T09:46:20.345Z,4.80
2018-07-24T09:48:48.291Z,6.03
2018-07-24T09:51:16.404Z,4.87
2018-07-24T09:53:44.522Z,4.47
2018-07-24T09:56:12.629Z,4.43
2018-07-24T09:58:40.756Z,5.73
2018-07-24T10:01:14.283Z,4.40
2018-07-24T10:03:42.399Z,4.87
2018-07-24T10:06:10.515Z,4.87
2018-07-24T10:08:38.629Z,4.37
2018-07-24T10:11:06.838Z,5.13
2018-07-24T10:13:34.880Z,4.43
2018-07-24T10:16:02.998Z,4.53
2018-07-24T10:18:31.094Z,5.13
2018-07-24T10:20:59.448Z,4.40
2018-07-24T10:23:27.580Z,4.27
2018-07-24T10:25:55.687Z,4.20
2018-07-24T10:28:23.798Z,5.40
2018-07-24T10:30:51.729Z,3.83
2018-07-24T10:33:19.831Z,4.30
2018-07-24T10:35:47.710Z,4.77
2018-07-24T10:38:15.798Z,4.70
2018-07-24T10:40:43.934Z,5.40
2018-07-24T10:43:12.078Z,4.60
2018-07-24T10:45:40.105Z,5.00
2018-07-24T10:48:08.213Z,5.13
2018-07-24T10:50:36.398Z,5.23
2018-07-24T10:53:04.500Z,5.10
2018-07-24T10:55:32.577Z,5.27
2018-07-24T10:58:00.694Z,5.27
2018-07-24T11:00:28.822Z,5.23
2018-07-24T11:02:56.925Z,5.20
2018-07-24T11:05:25.060Z,4.87
2018-07-24T11:07:53.137Z,5.53
2018-07-24T11:10:21.226Z,5.10
2018-07-24T11:12:49.326Z,5.80
2018-07-24T11:15:17.424Z,5.10
2018-07-24T11:17:45.541Z,5.33
2018-07-24T11:20:13.639Z,9.10
2018-07-24T11:22:41.828Z,5.90
2018-07-24T11:25:09.615Z,5.20
2018-07-24T11:27:37.718Z,4.67
2018-07-24T11:30:06.334Z,6.23
2018-07-24T11:32:34.472Z,5.37
2018-07-24T11:35:02.566Z,8.50
2018-07-24T11:37:30.669Z,5.50
2018-07-24T11:39:58.765Z,6.93
2018-07-24T11:42:26.822Z,4.70
2018-07-24T11:44:54.935Z,5.30
2018-07-24T11:47:23.045Z,6.97
2018-07-24T11:49:51.141Z,6.07
2018-07-24T11:52:19.081Z,5.33
2018-07-24T11:54:47.197Z,5.50
2018-07-24T11:57:15.297Z,5.47
2018-07-24T11:59:43.402Z,5.60
2018-07-24T12:02:11.582Z,6.40
2018-07-24T12:04:39.704Z,5.93
2018-07-24T12:07:07.794Z,5.73
2018-07-24T12:09:35.914Z,5.87
2018-07-24T12:12:03.778Z,5.60
2018-07-24T12:14:31.673Z,6.03
2018-07-24T12:16:59.785Z,4.90
2018-07-24T12:19:27.887Z,7.10
2018-07-24T12:21:55.999Z,5.53
2018-07-24T12:24:24.112Z,5.93
2018-07-24T12:26:52.244Z,5.23
2018-07-24T12:29:20.334Z,5.87
2018-07-24T12:31:48.626Z,5.10
2018-07-24T12:34:16.725Z,6.30
2018-07-24T12:36:44.657Z,5.60
2018-07-24T12:39:12.757Z,5.10
2018-07-24T12:41:40.696Z,4.87
2018-07-24T12:44:08.805Z,5.57
2018-07-24T12:46:36.918Z,5.13
2018-07-24T12:49:05.026Z,5.30
2018-07-24T12:51:33.142Z,7.87
2018-07-24T12:54:01.242Z,6.00
2018-07-24T12:56:29.329Z,6.17
2018-07-24T12:58:57.453Z,5.80
2018-07-24T13:01:25.554Z,6.83
2018-07-24T13:03:53.691Z,6.70
2018-07-24T13:06:21.764Z,6.35
2018-07-24T13:08:49.850Z,6.27
2018-07-24T13:11:17.955Z,6.33
2018-07-24T13:13:46.082Z,6.70
2018-07-24T13:16:14.185Z,6.97
2018-07-24T13:18:42.281Z,9.85
2018-07-24T13:21:10.390Z,6.55
2018-07-24T13:23:38.506Z,6.00
2018-07-24T13:26:06.609Z,6.15
2018-07-24T13:28:34.493Z,5.85
2018-07-24T13:31:02.598Z,5.75
2018-07-24T13:33:30.706Z,6.00
2018-07-24T13:35:58.805Z,5.87
2018-07-24T13:38:26.936Z,5.80
2018-07-24T13:40:55.044Z,8.63
2018-07-24T13:43:23.141Z,7.55
2018-07-24T13:45:51.319Z,6.03
2018-07-24T13:48:19.373Z,6.25
2018-07-24T13:50:47.465Z,8.30
2018-07-24T13:53:15.562Z,6.37
2018-07-24T13:55:43.682Z,7.03
2018-07-24T13:58:11.781Z,8.75
2018-07-24T14:00:39.906Z,7.17
2018-07-24T14:03:07.849Z,7.30
2018-07-24T14:05:35.995Z,7.33
2018-07-24T14:08:04.009Z,7.45
2018-07-24T14:10:32.104Z,7.20
2018-07-24T14:13:00.221Z,8.60
2018-07-24T14:15:28.336Z,7.70
2018-07-24T14:17:56.459Z,7.87
2018-07-24T14:20:24.538Z,7.37
2018-07-24T14:22:52.641Z,7.80
2018-07-24T14:25:20.739Z,6.78
2018-07-24T14:27:48.853Z,7.62
2018-07-24T14:30:16.949Z,7.40
2018-07-24T14:32:45.062Z,7.33
2018-07-24T14:35:13.158Z,7.42
2018-07-24T14:37:41.273Z,6.78
2018-07-24T14:40:09.373Z,7.97
2018-07-24T14:42:37.482Z,7.28
2018-07-24T14:45:05.920Z,6.97
2018-07-24T14:47:34.066Z,7.00
2018-07-24T14:50:02.181Z,7.00
2018-07-24T14:52:30.287Z,10.10
2018-07-24T14:54:58.400Z,7.03
2018-07-24T14:57:26.281Z,6.78
2018-07-24T14:59:54.394Z,7.47
2018-07-24T15:02:22.507Z,7.55
2018-07-24T15:04:50.512Z,6.90
2018-07-24T15:07:18.561Z,7.40
2018-07-24T15:09:46.686Z,7.30
2018-07-24T15:12:14.797Z,7.35
2018-07-24T15:14:42.691Z,7.05
2018-07-24T15:17:10.837Z,7.37
2018-07-24T15:19:38.712Z,8.30
2018-07-24T15:22:06.814Z,7.35
2018-07-24T15:27:21.331Z,6.85
2018-07-24T15:29:49.296Z,6.58
2018-07-24T15:35:08.408Z,6.70
2018-07-24T15:40:28.805Z,6.78
2018-07-24T15:42:56.927Z,6.70
2018-07-24T15:48:11.151Z,6.30
2018-07-24T15:50:39.264Z,8.57
2018-07-24T15:53:07.541Z,6.93
2018-07-24T15:55:35.697Z,6.73
2018-07-24T15:58:03.613Z,6.73
2018-07-24T16:00:31.495Z,6.60
2018-07-24T16:02:59.787Z,6.30
2018-07-24T16:05:28.003Z,8.03
2018-07-24T16:13:50.763Z,7.90
2018-07-24T16:16:18.871Z,9.03
2018-07-24T16:18:46.987Z,6.73
2018-07-24T16:21:15.108Z,6.80
2018-07-24T16:23:43.223Z,6.37
2018-07-24T16:26:11.343Z,6.30
2018-07-24T16:28:39.470Z,7.20
2018-07-24T16:31:07.587Z,6.97
2018-07-24T16:33:36.569Z,7.13
2018-07-24T16:36:04.731Z,6.07
2018-07-24T16:38:32.819Z,7.20
2018-07-24T16:41:00.947Z,6.43
2018-07-24T16:43:29.082Z,6.33
2018-07-24T16:45:57.211Z,7.47
2018-07-24T16:48:25.339Z,6.87
2018-07-24T16:50:53.468Z,7.87
2018-07-24T16:53:21.593Z,8.87
2018-07-24T16:55:49.727Z,7.87
2018-07-24T16:58:17.890Z,6.00
2018-07-24T17:00:46.038Z,9.07
2018-07-24T17:03:14.179Z,10.17
2018-07-24T17:05:42.302Z,6.10
2018-07-24T17:08:10.480Z,6.43
2018-07-24T17:10:38.577Z,6.50
2018-07-24T17:13:06.828Z,6.17
2018-07-24T17:15:34.953Z,6.43
2018-07-24T17:18:03.091Z,8.20
2018-07-24T17:20:31.322Z,6.37
2018-07-24T17:22:59.483Z,6.17
2018-07-24T17:25:27.619Z,9.00
2018-07-24T17:27:55.736Z,6.20
2018-07-24T17:30:23.858Z,6.30
2018-07-24T17:32:51.963Z,7.77
2018-07-24T17:35:20.111Z,6.70
2018-07-24T17:37:48.209Z,6.10
2018-07-24T17:40:16.322Z,5.87
2018-07-24T17:42:44.434Z,6.10
2018-07-24T17:45:12.376Z,6.47
2018-07-24T17:47:40.508Z,5.73
2018-07-24T17:50:08.637Z,6.37
2018-07-24T17:52:36.742Z,6.10
2018-07-24T17:55:04.875Z,6.60
2018-07-24T17:57:32.996Z,8.90
2018-07-24T18:00:01.218Z,6.43
2018-07-24T18:02:29.222Z,6.40
2018-07-24T18:04:57.335Z,5.73
2018-07-24T18:07:25.452Z,6.47
2018-07-24T18:09:53.582Z,5.50
2018-07-24T18:12:21.708Z,7.83
2018-07-24T18:14:49.967Z,6.27
2018-07-24T18:17:18.027Z,5.93
2018-07-24T18:19:46.149Z,5.63
2018-07-24T18:22:14.276Z,6.70
2018-07-24T18:24:42.395Z,5.80
2018-07-24T18:27:10.638Z,5.83
2018-07-24T18:29:38.531Z,5.97
2018-07-24T18:32:06.675Z,6.30
2018-07-24T18:34:34.799Z,5.57
2018-07-24T18:37:02.952Z,7.93
2018-07-24T18:39:31.063Z,6.70
2018-07-24T18:41:59.203Z,5.90
2018-07-24T18:44:27.315Z,6.33
2018-07-24T18:46:55.465Z,6.30
2018-07-24T18:49:23.570Z,7.40
2018-07-24T18:51:51.688Z,8.40
2018-07-24T18:54:19.806Z,6.70
2018-07-24T18:56:47.931Z,6.90
2018-07-24T18:59:16.035Z,7.50
2018-07-24T19:01:44.195Z,6.77
2018-07-24T19:04:12.311Z,7.43
2018-07-24T19:06:40.431Z,7.00
2018-07-24T19:09:09.645Z,8.37
2018-07-24T19:11:37.790Z,6.27
2018-07-24T19:14:05.919Z,6.80
2018-07-24T19:16:34.051Z,6.60
2018-07-24T19:19:02.204Z,6.73
2018-07-24T19:21:30.299Z,6.23
2018-07-24T19:23:58.419Z,6.60
2018-07-24T19:26:26.540Z,7.20
2018-07-24T19:28:54.654Z,10.20
2018-07-24T19:31:22.888Z,7.00
2018-07-24T19:33:50.933Z,9.90
2018-07-24T19:36:19.051Z,7.87
2018-07-24T19:38:47.307Z,6.60
2018-07-24T19:41:15.447Z,6.27
2018-07-24T19:43:43.586Z,8.03
2018-07-24T19:46:11.701Z,6.53
2018-07-24T19:48:39.822Z,7.00
2018-07-24T19:51:07.956Z,9.63
2018-07-24T19:53:36.110Z,6.97
2018-07-24T19:56:04.271Z,7.00
2018-07-24T19:58:32.415Z,7.60
2018-07-24T20:01:00.542Z,9.40
2018-07-24T20:03:28.660Z,7.00
2018-07-24T20:05:56.839Z,8.03
2018-07-24T20:08:24.959Z,7.53
2018-07-24T20:10:53.158Z,7.73
2018-07-24T20:13:21.264Z,7.60
2018-07-24T20:15:49.417Z,7.87
2018-07-24T20:18:17.531Z,7.73
2018-07-24T20:20:45.652Z,7.73
2018-07-24T20:23:13.856Z,7.87
2018-07-24T20:25:41.912Z,8.00
2018-07-24T20:28:10.202Z,9.23
2018-07-24T20:30:38.234Z,9.83
2018-07-24T20:33:06.408Z,8.60
2018-07-24T20:35:34.593Z,7.90
2018-07-24T20:38:02.703Z,7.73
2018-07-24T20:40:30.819Z,8.40
2018-07-24T20:42:58.951Z,8.67
2018-07-24T20:45:27.063Z,9.10
2018-07-24T20:47:55.194Z,8.43
2018-07-24T20:50:23.427Z,8.00
2018-07-24T20:52:51.576Z,7.83
2018-07-24T20:55:19.686Z,8.40
2018-07-24T20:57:47.814Z,8.80
2018-07-24T21:00:15.935Z,10.50
2018-07-24T21:02:43.864Z,8.40
2018-07-24T21:05:11.979Z,8.57
2018-07-24T21:07:40.111Z,8.60
2018-07-24T21:10:13.699Z,8.03
2018-07-24T21:12:41.891Z,8.20
2018-07-24T21:15:09.997Z,7.83
2018-07-24T21:17:38.139Z,8.87
2018-07-24T21:20:06.256Z,8.80
2018-07-24T21:22:34.379Z,8.37
2018-07-24T21:25:02.520Z,8.13
2018-07-24T21:27:30.697Z,8.97
2018-07-24T21:29:58.760Z,8.23
2018-07-24T21:32:26.894Z,9.37
2018-07-24T21:34:55.127Z,8.17
2018-07-24T21:37:23.302Z,8.57
2018-07-24T21:39:51.412Z,8.60
2018-07-24T21:42:19.539Z,7.90
2018-07-24T21:44:47.695Z,7.37
2018-07-24T21:47:15.864Z,8.33
2018-07-24T21:49:44.206Z,7.90
2018-07-24T21:52:12.354Z,8.73
2018-07-24T21:54:40.514Z,10.70
2018-07-24T21:57:08.655Z,11.07
2018-07-24T21:59:36.766Z,9.87
2018-07-24T22:02:05.054Z,9.23
2018-07-24T22:04:33.291Z,8.50
2018-07-24T22:07:01.401Z,8.67
2018-07-24T22:09:29.531Z,8.53
2018-07-24T22:11:58.683Z,9.27
2018-07-24T22:14:26.819Z,8.67
2018-07-24T22:16:54.960Z,8.77
2018-07-24T22:19:23.107Z,8.53
2018-07-24T22:21:51.261Z,8.47
2018-07-24T22:24:19.420Z,12.33
2018-07-24T22:26:47.576Z,8.40
2018-07-24T22:29:15.739Z,9.47
2018-07-24T22:31:43.880Z,8.80
2018-07-24T22:34:12.037Z,9.40
2018-07-24T22:36:40.158Z,8.33
2018-07-24T22:39:10.008Z,8.43
2018-07-24T22:41:38.189Z,12.23
2018-07-24T22:44:06.329Z,8.00
2018-07-24T22:46:34.622Z,8.83
2018-07-24T22:49:02.761Z,12.67
2018-07-24T22:51:30.884Z,8.67
2018-07-24T22:53:59.033Z,9.30
2018-07-24T22:56:27.164Z,8.60
2018-07-24T22:58:55.308Z,8.17
2018-07-24T23:01:23.447Z,8.67
2018-07-24T23:03:51.611Z,8.23
2018-07-24T23:06:19.746Z,8.17
2018-07-24T23:11:39.710Z,9.03
2018-07-24T23:14:07.817Z,7.93
2018-07-24T23:16:35.925Z,8.87
2018-07-24T23:21:54.987Z,8.37
2018-07-24T23:24:23.117Z,8.47
2018-07-24T23:26:51.258Z,8.63
2018-07-24T23:29:19.402Z,9.40
2018-07-24T23:31:47.521Z,8.43
2018-07-24T23:37:07.532Z,9.40
2018-07-24T23:39:35.907Z,9.33
2018-07-24T23:42:03.997Z,9.70
2018-07-24T23:44:32.121Z,9.07
2018-07-24T23:47:00.273Z,10.10
2018-07-24T23:49:28.597Z,9.33
2018-07-24T23:51:56.854Z,9.73
2018-07-24T23:54:24.998Z,9.10
2018-07-24T23:56:53.163Z,9.00
